createdAt,value
2023-02-19T00:02:15.064Z,12.18
2023-02-19T00:04:45.530Z,17.98
2023-02-19T00:07:14.617Z,12.57
2023-02-19T00:09:43.655Z,11.63
2023-02-19T00:12:12.845Z,11.85
2023-02-19T00:14:42.022Z,12.40
2023-02-19T00:17:11.148Z,11.10
2023-02-19T00:19:40.084Z,14.57
2023-02-19T00:22:10.691Z,11.93
2023-02-19T00:24:39.845Z,15.32
2023-02-19T00:27:08.791Z,13.10
2023-02-19T00:29:37.754Z,13.02
2023-02-19T00:32:06.811Z,12.70
2023-02-19T00:34:37.733Z,13.38
2023-02-19T00:37:06.951Z,13.07
2023-02-19T00:39:37.432Z,12.65
2023-02-19T00:42:06.445Z,8.88
2023-02-19T00:44:35.432Z,12.07
2023-02-19T00:47:04.572Z,10.15
2023-02-19T00:49:33.655Z,15.52
2023-02-19T00:52:02.662Z,9.57
2023-02-19T00:54:32.076Z,7.43
2023-02-19T00:57:02.590Z,11.75
2023-02-19T00:59:31.838Z,13.82
2023-02-19T01:02:00.929Z,12.43
2023-02-19T01:04:30.516Z,8.95
2023-02-19T01:06:59.542Z,10.07
2023-02-19T01:09:28.835Z,9.82
2023-02-19T01:11:58.275Z,13.90
2023-02-19T01:14:29.134Z,10.50
2023-02-19T01:16:58.211Z,11.07
2023-02-19T01:19:27.325Z,8.80
2023-02-19T01:21:56.627Z,10.80
2023-02-19T01:24:25.698Z,9.05
2023-02-19T01:26:54.708Z,10.50
2023-02-19T01:29:23.854Z,9.38
2023-02-19T01:31:54.423Z,10.60
2023-02-19T01:34:23.751Z,10.20
2023-02-19T01:36:52.767Z,10.65
2023-02-19T01:39:21.766Z,7.70
2023-02-19T01:41:50.724Z,8.80
2023-02-19T01:44:56.642Z,9.90
2023-02-19T01:47:27.128Z,10.80
2023-02-19T01:49:58.490Z,10.05
2023-02-19T01:52:32.730Z,9.85
2023-02-19T01:55:03.860Z,8.98
2023-02-19T01:57:37.161Z,12.15
2023-02-19T02:00:11.334Z,9.00
2023-02-19T02:02:48.724Z,5.90
2023-02-19T02:05:25.297Z,6.25
2023-02-19T02:08:12.328Z,8.20
2023-02-19T02:10:41.602Z,8.00
2023-02-19T02:13:11.031Z,6.13
2023-02-19T02:15:51.115Z,8.27
2023-02-19T02:18:33.086Z,8.05
2023-02-19T02:21:20.008Z,10.65
2023-02-19T02:24:11.558Z,9.20
2023-02-19T02:26:53.481Z,6.40
2023-02-19T02:30:01.574Z,6.38
2023-02-19T02:32:39.803Z,7.57
2023-02-19T02:35:12.475Z,8.88
2023-02-19T02:37:45.232Z,7.68
2023-02-19T02:40:14.478Z,7.00
2023-02-19T02:42:45.005Z,6.70
2023-02-19T02:45:38.500Z,8.00
2023-02-19T02:48:47.284Z,6.57
2023-02-19T02:51:22.325Z,8.23
2023-02-19T02:54:35.262Z,6.00
2023-02-19T03:02:19.210Z,8.75
2023-02-19T03:05:12.889Z,10.70
2023-02-19T03:07:47.671Z,8.63
2023-02-19T03:10:21.891Z,10.93
2023-02-19T03:13:09.567Z,9.05
2023-02-19T03:16:03.468Z,6.93
2023-02-19T03:18:54.786Z,7.07
2023-02-19T03:21:25.373Z,11.20
2023-02-19T03:24:13.949Z,8.77
2023-02-19T03:26:45.330Z,7.15
2023-02-19T03:29:26.288Z,10.75
2023-02-19T03:32:06.522Z,10.60
2023-02-19T03:34:41.765Z,7.40
2023-02-19T03:37:15.003Z,7.70
2023-02-19T03:39:47.924Z,10.10
2023-02-19T03:42:36.729Z,7.38
2023-02-19T03:45:26.441Z,6.15
2023-02-19T03:48:04.340Z,8.00
2023-02-19T03:50:44.126Z,9.02
2023-02-19T03:53:19.712Z,10.57
2023-02-19T03:56:01.640Z,7.90
2023-02-19T03:58:36.854Z,6.78
2023-02-19T04:01:12.422Z,7.05
2023-02-19T04:03:46.671Z,9.13
2023-02-19T04:06:22.313Z,9.57
2023-02-19T04:08:56.034Z,7.15
2023-02-19T04:11:28.702Z,10.13
2023-02-19T04:14:09.213Z,10.07
2023-02-19T04:16:42.767Z,7.82
2023-02-19T04:19:15.223Z,10.30
2023-02-19T04:21:47.945Z,12.02
2023-02-19T04:24:23.831Z,8.82
2023-02-19T04:26:54.112Z,9.18
2023-02-19T04:29:23.162Z,7.90
2023-02-19T04:31:52.494Z,11.88
2023-02-19T04:34:21.686Z,8.85
2023-02-19T04:36:52.168Z,10.15
2023-02-19T04:39:21.289Z,5.35
2023-02-19T04:41:51.317Z,7.88
2023-02-19T04:44:20.339Z,8.02
2023-02-19T04:46:49.484Z,6.45
2023-02-19T04:49:18.565Z,9.25
2023-02-19T04:51:47.679Z,9.38
2023-02-19T04:54:18.341Z,11.52
2023-02-19T04:56:47.551Z,9.25
2023-02-19T04:59:16.619Z,6.85
2023-02-19T05:01:45.724Z,10.75
2023-02-19T05:04:14.875Z,8.52
2023-02-19T05:06:44.313Z,12.27
2023-02-19T05:09:13.395Z,8.10
2023-02-19T05:11:43.953Z,13.20
2023-02-19T05:14:12.938Z,8.90
2023-02-19T05:16:42.410Z,12.45
2023-02-19T05:19:12.929Z,8.13
2023-02-19T05:21:41.940Z,6.10
2023-02-19T05:24:11.182Z,6.20
2023-02-19T05:26:40.286Z,8.45
2023-02-19T05:29:10.838Z,9.18
2023-02-19T05:31:39.962Z,7.13
2023-02-19T05:34:09.005Z,8.00
2023-02-19T05:36:38.721Z,10.80
2023-02-19T05:39:08.664Z,7.60
2023-02-19T05:41:37.622Z,5.25
2023-02-19T05:44:06.693Z,7.22
2023-02-19T05:46:37.169Z,6.55
2023-02-19T05:49:06.306Z,6.30
2023-02-19T05:51:35.533Z,6.78
2023-02-19T05:54:05.152Z,6.97
2023-02-19T05:56:35.979Z,7.45
2023-02-19T05:59:08.138Z,7.72
2023-02-19T06:01:38.705Z,5.32
2023-02-19T06:04:07.776Z,7.22
2023-02-19T06:06:37.340Z,8.07
2023-02-19T06:09:06.827Z,8.30
2023-02-19T06:11:36.659Z,8.10
2023-02-19T06:14:06.321Z,10.25
2023-02-19T06:16:35.454Z,6.70
2023-02-19T06:19:06.292Z,6.25
2023-02-19T06:21:35.511Z,5.40
2023-02-19T06:24:08.686Z,6.38
2023-02-19T06:26:38.244Z,7.22
2023-02-19T06:29:07.263Z,5.65
2023-02-19T06:31:36.610Z,6.50
2023-02-19T06:34:07.754Z,5.90
2023-02-19T06:36:36.821Z,7.03
2023-02-19T06:39:06.866Z,8.18
2023-02-19T06:41:36.328Z,8.63
2023-02-19T06:44:05.597Z,7.15
2023-02-19T06:46:35.914Z,4.63
2023-02-19T06:49:05.900Z,8.18
2023-02-19T06:51:36.452Z,9.00
2023-02-19T06:54:05.670Z,6.68
2023-02-19T06:56:36.518Z,6.47
2023-02-19T06:59:08.661Z,8.80
2023-02-19T07:01:38.417Z,4.80
2023-02-19T07:04:08.797Z,9.48
2023-02-19T07:06:40.193Z,6.85
2023-02-19T07:09:10.780Z,4.40
2023-02-19T07:11:40.842Z,7.70
2023-02-19T07:14:15.274Z,5.82
2023-02-19T07:16:44.738Z,9.00
2023-02-19T07:19:15.839Z,7.38
2023-02-19T07:21:46.281Z,6.93
2023-02-19T07:24:15.330Z,9.23
2023-02-19T07:26:44.340Z,7.35
2023-02-19T07:29:13.365Z,7.97
2023-02-19T07:31:42.451Z,6.72
2023-02-19T07:34:11.506Z,6.03
2023-02-19T07:36:40.521Z,6.22
2023-02-19T07:39:14.860Z,5.82
2023-02-19T07:41:44.100Z,7.85
2023-02-19T07:44:19.806Z,7.28
2023-02-19T07:46:48.824Z,8.25
2023-02-19T07:49:18.063Z,6.10
2023-02-19T07:51:47.286Z,6.45
2023-02-19T07:54:17.668Z,5.68
2023-02-19T07:56:46.721Z,5.47
2023-02-19T07:59:16.054Z,6.50
2023-02-19T08:02:02.502Z,5.28
2023-02-19T08:04:31.530Z,7.45
2023-02-19T08:07:00.556Z,7.18
2023-02-19T08:09:31.086Z,8.95
2023-02-19T08:12:17.655Z,9.00
2023-02-19T08:14:46.677Z,7.32
2023-02-19T08:17:15.767Z,6.88
2023-02-19T08:19:45.269Z,6.45
2023-02-19T08:22:16.435Z,8.25
2023-02-19T08:24:47.336Z,7.00
2023-02-19T08:27:16.674Z,6.80
2023-02-19T08:29:45.786Z,7.40
2023-02-19T08:32:14.943Z,8.27
2023-02-19T08:34:44.144Z,7.95
2023-02-19T08:37:13.189Z,5.38
2023-02-19T08:39:42.208Z,8.13
2023-02-19T08:42:12.655Z,5.55
2023-02-19T08:44:42.468Z,6.90
2023-02-19T08:47:15.425Z,7.15
2023-02-19T08:49:44.442Z,8.25
2023-02-19T08:52:13.628Z,8.05
2023-02-19T08:54:43.572Z,7.78
2023-02-19T08:57:14.392Z,8.63
2023-02-19T08:59:44.622Z,6.88
2023-02-19T09:02:14.018Z,10.43
2023-02-19T09:04:43.035Z,10.85
2023-02-19T09:07:14.004Z,7.05
2023-02-19T09:10:10.121Z,8.52
2023-02-19T09:12:42.250Z,7.45
2023-02-19T09:15:11.572Z,9.80
2023-02-19T09:17:40.552Z,7.53
2023-02-19T09:20:10.811Z,8.02
2023-02-19T09:22:39.832Z,7.97
2023-02-19T09:25:09.255Z,5.88
2023-02-19T09:27:38.386Z,6.53
2023-02-19T09:30:10.463Z,7.93
2023-02-19T09:32:39.522Z,8.98
2023-02-19T09:35:09.093Z,11.07
2023-02-19T09:37:38.096Z,7.10
2023-02-19T09:40:07.710Z,10.07
2023-02-19T09:42:37.201Z,10.65
2023-02-19T09:45:07.043Z,7.97
2023-02-19T09:47:37.555Z,6.78
2023-02-19T09:50:09.681Z,8.93
2023-02-19T09:52:42.263Z,9.68
2023-02-19T09:55:18.767Z,9.52
2023-02-19T09:57:49.729Z,8.25
2023-02-19T10:00:23.857Z,8.85
2023-02-19T10:02:56.108Z,10.73
2023-02-19T10:05:27.307Z,8.63
2023-02-19T10:07:57.896Z,9.63
2023-02-19T10:10:31.490Z,10.20
2023-02-19T10:13:13.380Z,7.22
2023-02-19T10:15:48.377Z,7.03
2023-02-19T10:18:24.289Z,9.68
2023-02-19T10:20:54.414Z,7.55
2023-02-19T10:23:25.154Z,9.25
2023-02-19T10:25:57.259Z,9.57
2023-02-19T10:28:30.284Z,7.85
2023-02-19T10:31:01.023Z,8.65
2023-02-19T10:33:31.498Z,9.38
2023-02-19T10:36:03.600Z,9.43
2023-02-19T10:38:35.675Z,8.18
2023-02-19T10:41:08.047Z,9.02
2023-02-19T10:43:41.011Z,8.60
2023-02-19T10:46:19.050Z,10.15
2023-02-19T10:48:54.306Z,10.30
2023-02-19T10:51:31.994Z,11.00
2023-02-19T10:54:09.256Z,11.48
2023-02-19T10:56:40.911Z,10.18
2023-02-19T10:59:23.644Z,8.82
2023-02-19T11:01:57.923Z,9.40
2023-02-19T11:04:30.180Z,9.20
2023-02-19T11:06:59.276Z,12.10
2023-02-19T11:09:32.701Z,10.60
2023-02-19T11:12:01.885Z,7.70
2023-02-19T11:14:33.378Z,13.02
2023-02-19T11:17:06.075Z,12.05
2023-02-19T11:19:40.192Z,10.18
2023-02-19T11:22:29.525Z,12.55
2023-02-19T11:25:05.075Z,9.73
2023-02-19T11:27:34.820Z,10.30
2023-02-19T11:30:38.964Z,11.68
2023-02-19T11:33:27.045Z,10.27
2023-02-19T11:36:18.793Z,11.55
2023-02-19T11:38:47.895Z,10.18
2023-02-19T11:41:27.186Z,15.13
2023-02-19T11:44:12.045Z,10.20
2023-02-19T11:46:52.681Z,12.05
2023-02-19T11:49:32.800Z,11.00
2023-02-19T11:52:21.210Z,10.02
2023-02-19T11:54:54.708Z,11.38
2023-02-19T11:57:39.300Z,10.63
2023-02-19T12:00:27.802Z,8.60
2023-02-19T12:03:23.598Z,9.32
2023-02-19T12:06:11.194Z,9.32
2023-02-19T12:09:08.242Z,8.80
2023-02-19T12:11:56.506Z,10.93
2023-02-19T12:15:07.330Z,9.18
2023-02-19T12:18:03.137Z,7.88
2023-02-19T12:20:40.806Z,8.85
2023-02-19T12:23:40.506Z,11.90
2023-02-19T12:26:22.224Z,9.55
2023-02-19T12:29:18.312Z,10.25
2023-02-19T12:34:43.049Z,6.82
2023-02-19T12:37:33.211Z,11.50
2023-02-19T12:40:18.663Z,11.02
2023-02-19T12:43:11.000Z,7.13
2023-02-19T12:45:45.974Z,9.20
2023-02-19T12:48:25.336Z,10.93
2023-02-19T12:50:58.632Z,9.45
2023-02-19T12:53:41.483Z,7.57
2023-02-19T12:56:17.204Z,10.75
2023-02-19T12:58:52.591Z,9.55
2023-02-19T13:01:27.700Z,11.80
2023-02-19T13:04:17.698Z,10.82
2023-02-19T13:06:52.436Z,11.52
2023-02-19T13:09:28.472Z,11.45
2023-02-19T13:12:03.187Z,9.15
2023-02-19T13:14:37.764Z,11.85
2023-02-19T13:17:20.770Z,9.25
2023-02-19T13:19:55.231Z,12.48
2023-02-19T13:22:49.039Z,11.77
2023-02-19T13:25:20.637Z,9.75
2023-02-19T13:28:11.477Z,15.75
2023-02-19T13:31:03.679Z,10.20
2023-02-19T13:33:42.326Z,10.10
2023-02-19T13:36:14.705Z,8.65
2023-02-19T13:38:46.404Z,12.10
2023-02-19T13:41:30.249Z,10.77
2023-02-19T13:44:03.643Z,13.73
2023-02-19T13:46:43.489Z,12.90
2023-02-19T13:49:49.948Z,13.00
2023-02-19T13:52:39.631Z,11.35
2023-02-19T13:55:46.829Z,10.45
2023-02-19T13:59:02.155Z,9.85
2023-02-19T14:02:04.534Z,14.40
2023-02-19T14:04:52.066Z,13.55
2023-02-19T14:08:02.155Z,11.00
2023-02-19T14:10:53.002Z,11.32
2023-02-19T14:14:11.213Z,13.85
2023-02-19T14:17:17.751Z,12.32
2023-02-19T14:20:01.540Z,15.32
2023-02-19T14:23:09.765Z,16.17
2023-02-19T14:25:52.803Z,11.73
2023-02-19T14:28:30.340Z,17.65
2023-02-19T14:31:01.927Z,13.88
2023-02-19T14:33:35.435Z,14.40
2023-02-19T14:36:15.845Z,15.40
2023-02-19T14:38:51.058Z,14.48
2023-02-19T14:43:53.268Z,14.73
2023-02-19T14:46:29.512Z,14.30
2023-02-19T14:49:06.347Z,14.50
2023-02-19T14:51:39.742Z,14.75
2023-02-19T14:54:15.948Z,17.42
2023-02-19T14:56:49.214Z,14.48
2023-02-19T14:59:27.151Z,18.42
2023-02-19T15:02:01.900Z,15.48
2023-02-19T15:04:37.407Z,15.70
2023-02-19T15:07:11.926Z,12.65
2023-02-19T15:09:45.402Z,17.67
2023-02-19T15:12:20.198Z,13.73
2023-02-19T15:14:51.046Z,13.27
2023-02-19T15:17:26.712Z,10.98
2023-02-19T15:19:56.902Z,14.27
2023-02-19T15:22:29.601Z,13.77
2023-02-19T15:25:01.752Z,11.70
2023-02-19T15:27:33.074Z,13.27
2023-02-19T15:30:02.198Z,12.55
2023-02-19T15:32:33.842Z,16.15
2023-02-19T15:35:05.583Z,15.60
2023-02-19T15:37:37.428Z,17.13
2023-02-19T15:40:09.440Z,15.00
2023-02-19T15:42:41.583Z,14.23
2023-02-19T15:45:21.924Z,18.48
2023-02-19T15:47:54.803Z,14.15
2023-02-19T15:50:26.885Z,14.68
2023-02-19T15:53:03.932Z,13.13
2023-02-19T15:55:38.213Z,11.63
2023-02-19T15:58:14.588Z,14.97
2023-02-19T16:00:48.509Z,15.88
2023-02-19T16:03:20.339Z,18.92
2023-02-19T16:06:00.625Z,13.82
2023-02-19T16:08:33.278Z,11.77
2023-02-19T16:11:04.581Z,17.02
2023-02-19T16:13:35.598Z,16.35
2023-02-19T16:16:15.428Z,14.48
2023-02-19T16:18:51.287Z,14.20
2023-02-19T16:21:24.695Z,14.48
2023-02-19T16:24:02.630Z,16.00
2023-02-19T16:26:40.090Z,13.57
2023-02-19T16:29:20.352Z,17.15
2023-02-19T16:31:51.366Z,16.27
2023-02-19T16:34:34.737Z,16.55
2023-02-19T16:37:04.623Z,11.05
2023-02-19T16:39:42.549Z,13.77
2023-02-19T16:42:15.967Z,14.70
2023-02-19T16:44:46.376Z,13.25
2023-02-19T16:47:33.169Z,11.93
2023-02-19T16:50:13.876Z,14.98
2023-02-19T16:52:52.677Z,14.48
2023-02-19T16:55:24.361Z,14.30
2023-02-19T16:57:56.449Z,12.20
2023-02-19T17:00:28.424Z,9.75
2023-02-19T17:03:09.332Z,15.73
2023-02-19T17:05:40.555Z,10.57
2023-02-19T17:08:34.052Z,13.23
2023-02-19T17:11:08.207Z,9.63
2023-02-19T17:13:37.538Z,13.00
2023-02-19T17:16:07.035Z,16.35
2023-02-19T17:18:36.602Z,13.38
2023-02-19T17:21:14.719Z,12.73
2023-02-19T17:23:43.748Z,15.80
2023-02-19T17:26:16.861Z,13.00
2023-02-19T17:28:45.906Z,17.00
2023-02-19T17:31:15.758Z,12.40
2023-02-19T17:33:45.313Z,14.38
2023-02-19T17:36:20.066Z,15.93
2023-02-19T17:38:49.490Z,14.43
2023-02-19T17:41:20.168Z,14.52
2023-02-19T17:43:50.979Z,12.82
2023-02-19T17:46:22.255Z,12.60
2023-02-19T17:48:51.591Z,17.88
2023-02-19T17:51:20.738Z,12.43
2023-02-19T17:53:49.853Z,13.85
2023-02-19T17:56:24.214Z,12.57
2023-02-19T17:58:56.018Z,11.77
2023-02-19T18:01:25.761Z,11.40
2023-02-19T18:03:54.926Z,13.45
2023-02-19T18:06:26.641Z,16.92
2023-02-19T18:08:56.198Z,13.45
2023-02-19T18:11:27.186Z,13.88
2023-02-19T18:13:56.458Z,12.10
2023-02-19T18:16:25.852Z,17.95
2023-02-19T18:18:55.427Z,12.00
2023-02-19T18:21:25.623Z,15.98
2023-02-19T18:23:55.036Z,15.15
2023-02-19T18:26:24.831Z,17.73
2023-02-19T18:29:01.743Z,14.48
2023-02-19T18:31:33.331Z,17.05
2023-02-19T18:34:02.493Z,17.98
2023-02-19T18:36:31.790Z,17.05
2023-02-19T18:39:00.979Z,13.05
2023-02-19T18:41:30.011Z,16.95
2023-02-19T18:44:00.784Z,14.05
2023-02-19T18:46:32.237Z,13.52
2023-02-19T18:49:01.650Z,17.98
2023-02-19T18:51:30.747Z,17.13
2023-02-19T18:54:01.830Z,19.45
2023-02-19T18:56:31.987Z,14.35
2023-02-19T18:59:04.449Z,15.77
2023-02-19T19:01:33.765Z,15.40
2023-02-19T19:04:03.565Z,16.73
2023-02-19T19:06:32.831Z,19.88
2023-02-19T19:09:02.069Z,19.38
2023-02-19T19:11:31.690Z,14.45
2023-02-19T19:14:01.057Z,15.80
2023-02-19T19:16:32.132Z,17.65
2023-02-19T19:19:01.456Z,16.40
2023-02-19T19:21:30.854Z,17.92
2023-02-19T19:23:59.991Z,14.27
2023-02-19T19:26:29.107Z,17.48
2023-02-19T19:28:58.214Z,17.08
2023-02-19T19:31:27.651Z,25.50
2023-02-19T19:33:58.415Z,14.00
2023-02-19T19:36:27.426Z,19.45
2023-02-19T19:38:56.498Z,14.80
2023-02-19T19:41:25.649Z,19.17
2023-02-19T19:43:55.641Z,17.13
2023-02-19T19:46:24.718Z,18.92
2023-02-19T19:48:54.154Z,17.92
2023-02-19T19:51:24.804Z,16.73
2023-02-19T19:53:53.864Z,17.38
2023-02-19T19:56:23.023Z,17.52
2023-02-19T19:58:52.054Z,12.93
2023-02-19T20:01:23.263Z,15.32
2023-02-19T20:03:52.358Z,16.88
2023-02-19T20:06:30.946Z,13.20
2023-02-19T20:09:00.449Z,17.33
2023-02-19T20:11:29.478Z,11.20
2023-02-19T20:13:58.493Z,17.13
2023-02-19T20:16:28.276Z,13.90
2023-02-19T20:18:57.781Z,16.73
2023-02-19T20:21:28.150Z,18.08
2023-02-19T20:23:57.361Z,18.25
2023-02-19T20:26:28.610Z,20.00
2023-02-19T20:28:58.284Z,16.60
2023-02-19T20:31:27.770Z,18.15
2023-02-19T20:33:57.135Z,16.20
2023-02-19T20:36:28.577Z,15.85
2023-02-19T20:38:59.436Z,12.65
2023-02-19T20:41:28.544Z,17.17
2023-02-19T20:43:57.533Z,15.07
2023-02-19T20:46:26.542Z,16.55
2023-02-19T20:48:55.551Z,17.67
2023-02-19T20:51:24.647Z,15.27
2023-02-19T20:53:53.640Z,16.40
2023-02-19T20:56:24.040Z,19.25
2023-02-19T20:58:53.289Z,9.48
2023-02-19T21:01:27.426Z,16.00
2023-02-19T21:03:56.644Z,13.15
2023-02-19T21:06:25.832Z,12.05
2023-02-19T21:08:54.770Z,17.25
2023-02-19T21:11:25.133Z,13.57
2023-02-19T21:13:56.829Z,13.70
2023-02-19T21:16:26.408Z,17.75
2023-02-19T21:18:55.563Z,10.98
2023-02-19T21:21:26.422Z,11.63
2023-02-19T21:23:56.266Z,14.38
2023-02-19T21:26:34.111Z,13.60
2023-02-19T21:29:03.312Z,13.15
2023-02-19T21:31:41.192Z,11.93
2023-02-19T21:34:13.022Z,14.45
2023-02-19T21:36:42.333Z,10.80
2023-02-19T21:39:13.400Z,14.38
2023-02-19T21:41:43.835Z,12.55
2023-02-19T21:44:12.834Z,11.00
2023-02-19T21:46:42.190Z,11.38
2023-02-19T21:49:11.829Z,16.67
2023-02-19T21:51:43.051Z,14.25
2023-02-19T21:54:17.060Z,14.70
2023-02-19T21:56:47.443Z,13.30
2023-02-19T21:59:16.759Z,15.13
2023-02-19T22:01:46.473Z,14.15
2023-02-19T22:04:17.811Z,15.75
2023-02-19T22:06:46.948Z,20.98
2023-02-19T22:09:16.602Z,17.27
2023-02-19T22:11:46.981Z,19.45
2023-02-19T22:14:16.314Z,16.05
2023-02-19T22:16:45.377Z,16.30
2023-02-19T22:19:14.763Z,12.88
2023-02-19T22:21:45.249Z,15.23
2023-02-19T22:24:19.771Z,13.10
2023-02-19T22:26:50.985Z,15.35
2023-02-19T22:29:19.979Z,17.42
2023-02-19T22:31:49.452Z,13.32
2023-02-19T22:34:18.603Z,15.35
2023-02-19T22:36:47.853Z,18.38
2023-02-19T22:39:20.014Z,12.48
2023-02-19T22:41:51.076Z,12.80
2023-02-19T22:44:20.461Z,19.27
2023-02-19T22:46:50.852Z,14.05
2023-02-19T22:49:20.574Z,16.60
2023-02-19T22:51:51.961Z,12.45
2023-02-19T22:54:26.914Z,13.00
2023-02-19T22:56:57.585Z,17.23
2023-02-19T22:59:26.576Z,14.00
2023-02-19T23:01:56.047Z,11.68
2023-02-19T23:04:26.266Z,10.52
2023-02-19T23:06:55.518Z,15.70
2023-02-19T23:09:27.121Z,13.02
2023-02-19T23:12:02.659Z,13.90
2023-02-19T23:14:32.049Z,16.08
2023-02-19T23:17:01.218Z,13.80
2023-02-19T23:19:30.548Z,13.35
2023-02-19T23:22:00.167Z,13.43
2023-02-19T23:24:29.105Z,17.95
2023-02-19T23:27:00.730Z,13.02
2023-02-19T23:29:31.025Z,11.25
2023-02-19T23:32:01.796Z,12.05
2023-02-19T23:34:30.913Z,13.88
2023-02-19T23:37:00.437Z,11.35
2023-02-19T23:39:30.066Z,13.70
2023-02-19T23:42:00.575Z,9.02
2023-02-19T23:44:29.578Z,15.23
2023-02-19T23:46:58.709Z,8.57
2023-02-19T23:49:27.824Z,13.07
2023-02-19T23:51:56.877Z,11.48
2023-02-19T23:54:25.878Z,10.07
2023-02-19T23:56:54.823Z,13.90
2023-02-19T23:59:25.503Z,9.07
